Time;durP1;ratioP1;P1;durP2;ratioP2;P2;SDS_P1;SDS_P2;PMS_P1;PMS_P2;Temp;Humidity;BMP_temperature;BMP_pressure;BME280_temperature;BME280_humidity;BME280_pressure;Samples;Min_cycle;Max_cycle;Signal;HPM_P1;HPM_P2
2022/06/01 00:00:30;;;;;;;3.40;3.10;;;;;;;9.53;77.00;101272.44;6216560;23;20000;-82
2022/06/01 00:02:57;;;;;;;3.65;3.25;;;;;;;9.52;76.94;101281.09;6215007;23;20472;-82
2022/06/01 00:05:23;;;;;;;4.57;3.20;;;;;;;9.51;76.93;101278.50;6216563;23;20422;-82
2022/06/01 00:07:49;;;;;;;3.55;3.05;;;;;;;9.49;77.70;101283.72;6215665;23;20016;-82
2022/06/01 00:10:15;;;;;;;3.78;3.00;;;;;;;9.47;77.37;101280.25;6215250;23;20087;-82
2022/06/01 00:12:41;;;;;;;3.53;3.00;;;;;;;9.45;77.52;101281.97;6215622;23;20008;-82
2022/06/01 00:15:07;;;;;;;3.13;2.80;;;;;;;9.45;77.30;101287.16;6216122;23;20080;-82
2022/06/01 00:17:33;;;;;;;4.07;3.22;;;;;;;9.44;77.26;101293.22;6215813;23;20372;-82
2022/06/01 00:19:58;;;;;;;4.20;3.20;;;;;;;9.42;77.33;101292.34;6216056;23;20079;-82
2022/06/01 00:22:24;;;;;;;4.43;3.27;;;;;;;9.41;77.02;101291.50;6216944;23;20084;-82
2022/06/01 00:24:50;;;;;;;4.10;3.17;;;;;;;9.40;77.57;101283.75;6215194;23;20007;-82
2022/06/01 00:27:17;;;;;;;3.27;2.83;;;;;;;9.36;77.31;101292.38;6215941;23;20012;-82
2022/06/01 00:29:42;;;;;;;3.15;2.85;;;;;;;9.36;77.32;101285.47;6216911;23;20001;-81
2022/06/01 00:32:11;;;;;;;4.03;3.13;;;;;;;9.35;77.40;101294.09;6216315;23;20008;-82
2022/06/01 00:34:37;;;;;;;3.65;3.20;;;;;;;9.37;77.37;101288.94;6217086;23;20410;-81
2022/06/01 00:37:02;;;;;;;3.72;3.10;;;;;;;9.36;77.51;101294.97;6216004;23;20373;-82
2022/06/01 00:39:28;;;;;;;3.87;3.10;;;;;;;9.36;78.02;101292.38;6216649;23;20004;-81
2022/06/01 00:41:53;;;;;;;3.53;2.90;;;;;;;9.36;77.88;101293.22;6215071;23;20008;-82
2022/06/01 00:44:18;;;;;;;3.40;2.80;;;;;;;9.37;77.95;101292.38;6214987;23;20071;-82
2022/06/01 00:46:44;;;;;;;4.00;3.07;;;;;;;9.36;78.28;101290.63;6216261;23;20008;-82
2022/06/01 00:49:18;;;;;;;4.40;3.00;;;;;;;9.37;77.95;101297.53;6217369;23;20032;-82
2022/06/01 00:51:44;;;;;;;4.05;3.25;;;;;;;9.37;77.74;101289.78;6214992;23;20329;-82
2022/06/01 00:54:10;;;;;;;5.25;3.20;;;;;;;9.38;78.46;101288.06;6216452;23;20078;-82
2022/06/01 00:56:44;;;;;;;4.72;3.45;;;;;;;9.36;78.90;101288.06;6216036;23;20310;-82
2022/06/01 00:59:15;;;;;;;3.55;3.05;;;;;;;9.36;78.51;101290.63;6215203;23;20415;-82
2022/06/01 01:01:41;;;;;;;4.13;3.40;;;;;;;9.36;78.28;101277.69;6215628;23;20083;-82
2022/06/01 01:04:07;;;;;;;3.40;2.77;;;;;;;9.37;78.44;101286.34;6215844;23;20043;-82
2022/06/01 01:06:36;;;;;;;3.70;3.03;;;;;;;9.38;81.30;101285.47;6214502;23;20000;-82
2022/06/01 01:09:03;;;;;;;6.78;4.13;;;;;;;9.34;79.93;101286.34;6215446;23;20013;-82
2022/06/01 01:11:33;;;;;;;4.68;3.47;;;;;;;9.32;79.82;101288.06;6215580;23;20012;-82
2022/06/01 01:14:00;;;;;;;4.03;3.25;;;;;;;9.28;79.23;101282.03;6214489;23;20019;-82
2022/06/01 01:16:26;;;;;;;3.97;3.08;;;;;;;9.27;79.16;101281.19;6215584;23;20008;-81
2022/06/01 01:18:54;;;;;;;4.07;3.15;;;;;;;9.29;78.77;101280.31;6214857;23;20785;-82
2022/06/01 01:21:26;;;;;;;4.57;3.40;;;;;;;9.30;78.47;101288.09;6214492;23;20008;-81
2022/06/01 01:24:04;;;;;;;3.40;2.90;;;;;;;9.31;79.31;101281.16;6215330;23;20012;-81
2022/06/01 01:26:32;;;;;;;3.75;3.10;;;;;;;9.33;79.70;101279.44;6214528;23;20004;-82
2022/06/01 01:28:57;;;;;;;3.92;3.25;;;;;;;9.33;79.46;101272.53;6214613;23;20008;-81
2022/06/01 01:31:24;;;;;;;3.43;2.90;;;;;;;9.36;80.96;101282.88;6215697;23;20015;-82
2022/06/01 01:33:52;;;;;;;7.38;4.90;;;;;;;9.35;81.84;101272.53;6214164;23;20008;-82
2022/06/01 01:36:24;;;;;;;5.63;3.97;;;;;;;9.37;80.23;101274.22;6215105;23;20011;-82
2022/06/01 01:38:54;;;;;;;4.85;3.70;;;;;;;9.39;80.05;101269.91;6215137;23;20307;-81
2022/06/01 01:41:31;;;;;;;5.18;3.60;;;;;;;9.41;80.10;101269.91;6215138;23;20032;-82
2022/06/01 01:44:00;;;;;;;;;;;;;;;9.42;79.71;101275.09;6215797;23;20473;-82
2022/06/01 01:46:27;;;;;;;5.40;3.80;;;;;;;9.43;79.38;101276.81;6215520;23;19907;-82
2022/06/01 01:48:53;;;;;;;4.85;3.85;;;;;;;9.46;78.88;101285.44;6214297;23;20000;-82
2022/06/01 01:51:23;;;;;;;4.37;3.40;;;;;;;9.46;79.85;101275.09;6215549;23;20075;-82
2022/06/01 01:53:49;;;;;;;4.80;3.53;;;;;;;9.43;79.12;101279.41;6214884;23;20016;-82
2022/06/01 01:56:59;;;;;;;3.77;3.10;;;;;;;9.46;79.80;101282.88;6214581;23;20005;-82
2022/06/01 01:59:50;;;;;;;5.53;3.50;;;;;;;9.47;79.33;101281.97;6094308;23;20337;-82
2022/06/01 02:02:21;;;;;;;4.32;3.30;;;;;;;9.48;79.25;101286.28;6186030;23;20452;-82
2022/06/01 02:08:26;;;;;;;3.80;3.15;;;;;;;9.50;79.62;101285.44;6214586;23;20027;-82
2022/06/01 02:13:45;;;;;;;3.90;3.05;;;;;;;9.52;79.60;101282.81;6214485;23;20020;-82
2022/06/01 02:16:10;;;;;;;3.95;3.28;;;;;;;9.55;79.83;101282.81;6213500;23;20012;-82
2022/06/01 02:18:41;;;;;;;3.57;2.97;;;;;;;9.52;79.83;101282.81;6217075;23;20008;-82
2022/06/01 02:21:14;;;;;;;3.75;3.03;;;;;;;9.53;79.59;101282.81;6217064;23;20445;-82
2022/06/01 02:23:39;;;;;;;3.75;3.13;;;;;;;9.53;79.79;101292.31;6216212;23;20012;-82
2022/06/01 02:26:05;;;;;;;3.63;3.10;;;;;;;9.51;79.54;101287.16;6217510;23;20005;-82
2022/06/01 02:28:32;;;;;;;3.05;2.70;;;;;;;9.50;79.80;101288.03;6217300;23;20000;-82
2022/06/01 02:31:00;;;;;;;3.63;2.90;;;;;;;9.47;80.40;101282.84;6216008;23;20005;-82
2022/06/01 02:33:33;;;;;;;7.50;4.60;;;;;;;9.45;82.82;101281.13;6217771;23;20005;-82
2022/06/01 02:36:00;;;;;;;6.38;4.20;;;;;;;9.43;80.71;101286.31;6216956;23;20032;-82
2022/06/01 02:38:33;;;;;;;8.30;4.93;;;;;;;9.41;83.36;101286.31;6216692;23;20000;-82
2022/06/01 02:41:02;;;;;;;7.07;4.40;;;;;;;9.38;81.55;101280.28;6216661;23;20005;-82
2022/06/01 02:43:28;;;;;;;8.68;5.05;;;;;;;9.35;82.78;101281.13;6216969;23;20402;-83
2022/06/01 02:45:53;;;;;;;5.87;3.93;;;;;;;9.32;81.28;101281.19;6215837;23;20084;-82
2022/06/01 02:48:19;;;;;;;5.80;3.87;;;;;;;9.32;80.78;101286.34;6217065;23;20020;-82
2022/06/01 02:50:45;;;;;;;6.03;3.90;;;;;;;9.27;80.40;101273.41;6215716;23;20000;-82
2022/06/01 02:53:10;;;;;;;4.87;3.80;;;;;;;9.24;81.57;101278.59;6217336;23;20004;-82
2022/06/01 02:55:36;;;;;;;6.47;4.30;;;;;;;9.22;80.66;101274.28;6216418;23;20031;-81
2022/06/01 02:58:02;;;;;;;7.03;4.57;;;;;;;9.17;81.25;101274.31;6215986;23;20042;-82
2022/06/01 03:00:37;;;;;;;5.95;3.97;;;;;;;9.12;80.57;101274.28;6216489;23;20008;-82
2022/06/01 03:03:05;;;;;;;5.15;3.50;;;;;;;9.11;80.47;101271.72;6217110;23;20012;-82
2022/06/01 03:05:34;;;;;;;5.05;3.72;;;;;;;9.06;80.93;101276.06;6216213;23;20426;-83
2022/06/01 03:07:59;;;;;;;6.68;4.15;;;;;;;9.02;80.37;101269.16;6216202;23;20020;-82
2022/06/01 03:10:25;;;;;;;6.43;4.23;;;;;;;9.00;80.14;101270.88;6216246;23;20492;-81
2022/06/01 03:12:53;;;;;;;6.33;4.10;;;;;;;8.99;80.65;101277.81;6215428;23;20079;-82
2022/06/01 03:15:20;;;;;;;5.47;3.70;;;;;;;8.95;81.81;101271.75;6216817;23;20240;-82
2022/06/01 03:17:46;;;;;;;6.22;4.30;;;;;;;8.89;80.72;101276.94;6216491;23;20012;-82
2022/06/01 03:20:13;;;;;;;9.97;5.93;;;;;;;8.86;82.47;101276.09;6215542;23;20326;-82
2022/06/01 03:22:40;;;;;;;7.55;4.50;;;;;;;8.83;80.81;101282.13;6216579;23;20001;-82
2022/06/01 03:25:09;;;;;;;7.15;4.35;;;;;;;8.81;80.51;101281.28;6216843;23;20322;-82
2022/06/01 03:27:35;;;;;;;8.20;4.57;;;;;;;8.76;81.62;101281.28;6214907;23;20043;-82
2022/06/01 03:30:01;;;;;;;7.47;4.80;;;;;;;8.73;82.04;101276.09;6216068;23;20377;-82
2022/06/01 03:32:26;;;;;;;7.13;4.60;;;;;;;8.68;82.21;101270.06;6216673;23;20016;-82
2022/06/01 03:34:52;;;;;;;8.13;4.97;;;;;;;8.62;81.73;101285.59;6215459;23;20009;-82
2022/06/01 03:37:17;;;;;;;7.87;5.00;;;;;;;8.56;81.78;101288.16;6216877;23;20058;-82
2022/06/01 03:39:43;;;;;;;7.20;4.30;;;;;;;8.53;81.77;101289.03;6216230;23;20005;-82
2022/06/01 03:42:08;;;;;;;7.97;4.95;;;;;;;8.52;82.94;101292.47;6215835;23;20008;-82
2022/06/01 03:47:17;;;;;;;11.93;6.97;;;;;;;8.44;84.33;101289.00;6215679;23;20019;-82
2022/06/01 03:49:43;;;;;;;9.77;5.87;;;;;;;8.43;83.21;101295.03;6216634;23;20004;-82
2022/06/01 03:52:10;;;;;;;7.93;5.40;;;;;;;8.41;82.20;101292.44;6214320;23;20140;-82
2022/06/01 03:54:37;;;;;;;10.80;6.10;;;;;;;8.41;83.51;101295.03;6214354;23;20015;-81
2022/06/01 03:57:03;;;;;;;8.63;5.55;;;;;;;8.43;84.48;101288.16;6216573;23;20031;-82
2022/06/01 03:59:30;;;;;;;10.10;5.80;;;;;;;8.41;83.81;101291.56;6216549;23;20008;-82
2022/06/01 04:01:55;;;;;;;8.43;5.43;;;;;;;8.40;83.38;101292.44;6215016;23;20011;-82
2022/06/01 04:04:21;;;;;;;6.30;4.20;;;;;;;8.42;82.82;101296.75;6216895;23;20004;-82
2022/06/01 04:06:46;;;;;;;5.07;3.85;;;;;;;8.46;81.96;101298.47;6215819;23;20418;-82
2022/06/01 04:09:11;;;;;;;7.07;4.40;;;;;;;8.47;82.97;101299.34;6215747;23;19997;-82
2022/06/01 04:11:37;;;;;;;7.37;4.40;;;;;;;8.48;83.39;101298.53;6216064;23;20015;-82
2022/06/01 04:14:02;;;;;;;8.27;5.07;;;;;;;8.47;82.21;101299.34;6216489;23;20004;-82
2022/06/01 04:16:28;;;;;;;10.07;5.40;;;;;;;8.48;83.15;101311.47;6215488;23;20019;-82
2022/06/01 04:18:54;;;;;;;7.78;5.03;;;;;;;8.51;81.96;101306.28;6215649;23;20076;-82
2022/06/01 04:21:24;;;;;;;6.87;4.33;;;;;;;8.53;81.84;101309.72;6215901;23;20005;-82
2022/06/01 04:23:50;;;;;;;7.97;4.50;;;;;;;8.56;81.28;101311.44;6213917;23;20005;-82
2022/06/01 04:26:16;;;;;;;6.50;4.03;;;;;;;8.59;81.39;101307.16;6214861;23;20410;-82
2022/06/01 04:28:43;;;;;;;6.00;3.90;;;;;;;8.62;80.96;101306.28;6216563;23;20009;-82
2022/06/01 04:31:08;;;;;;;4.82;3.53;;;;;;;8.62;81.15;101298.53;6215523;23;20092;-82
2022/06/01 04:33:33;;;;;;;5.50;3.47;;;;;;;8.62;80.91;101301.13;6215881;23;20040;-82
2022/06/01 04:35:59;;;;;;;5.90;3.60;;;;;;;8.61;81.33;101297.66;6216046;23;20322;-82
2022/06/01 04:38:24;;;;;;;4.07;3.17;;;;;;;8.61;81.13;101300.22;6215068;23;20004;-82
2022/06/01 04:40:50;;;;;;;4.60;3.43;;;;;;;8.61;81.25;101297.66;6215716;23;20008;-82
2022/06/01 04:43:18;;;;;;;4.75;3.70;;;;;;;8.60;81.88;101305.41;6215303;23;20012;-81
2022/06/01 04:45:44;;;;;;;5.05;3.60;;;;;;;8.60;81.61;101306.31;6215488;23;20027;-82
2022/06/01 04:48:12;;;;;;;4.67;3.37;;;;;;;8.60;82.67;101301.13;6215806;23;20469;-82
2022/06/01 04:50:44;;;;;;;6.65;4.00;;;;;;;8.59;82.90;101301.97;6214788;23;20058;-81
2022/06/01 04:53:15;;;;;;;4.97;3.53;;;;;;;8.64;81.73;101310.59;6215636;23;20353;-82
2022/06/01 04:55:45;;;;;;;5.95;3.63;;;;;;;8.69;81.93;101309.75;6215477;23;20096;-82
2022/06/01 04:58:11;;;;;;;4.63;3.30;;;;;;;8.73;82.71;101317.50;6214759;23;20067;-82
2022/06/01 05:00:38;;;;;;;5.07;3.53;;;;;;;8.76;83.41;101311.47;6215732;23;20035;-82
2022/06/01 05:03:04;;;;;;;;;;;;;;;8.77;84.38;101308.88;6216460;23;20000;-82
2022/06/01 05:05:29;;;;;;;8.50;5.00;;;;;;;8.79;83.79;101311.47;6215385;23;20272;-82
2022/06/01 05:07:54;;;;;;;6.35;4.20;;;;;;;8.84;82.95;101314.91;6214573;23;20013;-81
2022/06/01 05:10:23;;;;;;;6.90;4.50;;;;;;;8.89;84.51;101308.00;6215285;23;20012;-82
2022/06/01 05:12:49;;;;;;;7.70;4.68;;;;;;;8.93;84.33;101298.50;6214505;23;20067;-82
2022/06/01 05:15:15;;;;;;;9.15;5.28;;;;;;;8.98;84.62;101308.84;6215572;23;20001;-82
2022/06/01 05:17:40;;;;;;;12.33;6.57;;;;;;;9.00;84.83;101305.41;6214972;23;20084;-82
2022/06/01 05:20:07;;;;;;;12.20;6.67;;;;;;;9.02;84.86;101308.00;6213524;23;20009;-82
2022/06/01 05:22:32;;;;;;;9.48;5.60;;;;;;;9.07;85.27;101308.84;6214497;23;20000;-82
2022/06/01 05:24:57;;;;;;;11.07;5.87;;;;;;;9.09;84.96;101304.53;6215422;23;20012;-82
2022/06/01 05:27:23;;;;;;;10.63;5.93;;;;;;;9.11;86.05;101307.97;6214744;23;20009;-82
2022/06/01 05:29:48;;;;;;;10.87;6.07;;;;;;;9.12;85.31;101305.38;6215262;23;20005;-82
2022/06/01 05:32:13;;;;;;;8.97;5.30;;;;;;;9.17;85.34;101307.09;6215543;23;20001;-82
2022/06/01 05:34:39;;;;;;;9.82;5.70;;;;;;;9.20;86.36;101310.53;6214305;23;20080;-82
2022/06/01 05:37:04;;;;;;;9.83;5.67;;;;;;;9.22;86.29;101320.91;6215654;23;20075;-82
2022/06/01 05:39:30;;;;;;;9.77;5.67;;;;;;;9.25;86.39;101308.81;6214571;23;20000;-82
2022/06/01 05:41:55;;;;;;;8.80;5.00;;;;;;;9.29;85.49;101312.25;6214896;23;20626;-82
2022/06/01 05:44:21;;;;;;;9.87;5.63;;;;;;;9.35;87.22;101314.81;6215038;23;19996;-82
2022/06/01 05:46:46;;;;;;;7.90;4.83;;;;;;;9.40;85.95;101318.28;6214200;23;20013;-82
2022/06/01 05:49:13;;;;;;;6.37;4.20;;;;;;;9.48;86.29;101317.38;6215589;23;20008;-82
2022/06/01 05:51:38;;;;;;;5.75;3.60;;;;;;;9.54;85.66;101317.38;6214934;23;20001;-82
2022/06/01 05:54:04;;;;;;;6.60;4.20;;;;;;;9.61;86.20;101315.63;6214528;23;20060;-82
2022/06/01 05:56:30;;;;;;;5.60;3.63;;;;;;;9.68;85.57;101322.50;6215550;23;20418;-82
2022/06/01 05:58:55;;;;;;;6.03;3.73;;;;;;;9.76;86.80;101322.47;6215059;23;20005;-83
2022/06/01 06:01:24;;;;;;;4.10;3.00;;;;;;;9.82;85.78;101318.13;6214041;23;20429;-82
2022/06/01 06:03:50;;;;;;;6.13;4.00;;;;;;;9.90;86.94;101323.28;6215020;23;20001;-82
2022/06/01 06:06:15;;;;;;;9.53;4.90;;;;;;;10.24;87.77;101328.28;6215430;23;20472;-81
2022/06/01 06:08:46;;;;;;;8.83;5.07;;;;;;;11.90;88.19;101326.72;6213436;23;20009;-82
2022/06/01 06:11:13;;;;;;;6.90;4.30;;;;;;;13.92;84.16;101320.72;6215436;23;20015;-83
2022/06/01 06:13:38;;;;;;;5.18;3.60;;;;;;;14.61;81.49;101326.97;6214559;23;20035;-83
2022/06/01 06:16:04;;;;;;;3.97;3.00;;;;;;;14.69;79.08;101325.97;6214304;23;20075;-84
2022/06/01 06:18:30;;;;;;;5.50;3.70;;;;;;;14.68;77.76;101325.13;6215272;23;20314;-83
2022/06/01 06:20:55;;;;;;;5.37;3.60;;;;;;;14.79;77.06;101330.06;6214451;23;20004;-81
2022/06/01 06:23:21;;;;;;;6.33;3.40;;;;;;;14.77;76.70;101330.09;6214328;23;20001;-81
2022/06/01 06:25:47;;;;;;;4.20;2.90;;;;;;;14.74;76.77;101342.41;6214406;23;20011;-81
2022/06/01 06:28:12;;;;;;;4.90;3.10;;;;;;;14.87;75.15;101332.47;6215556;23;20450;-81
2022/06/01 06:30:39;;;;;;;4.17;2.93;;;;;;;15.18;74.83;101345.63;6213997;23;20000;-82
2022/06/01 06:33:05;;;;;;;4.35;3.00;;;;;;;15.49;74.51;101339.53;6215314;23;20100;-83
2022/06/01 06:35:31;;;;;;;3.72;2.78;;;;;;;15.78;73.79;101347.47;6215870;23;20008;-81
2022/06/01 06:37:56;;;;;;;3.00;2.50;;;;;;;16.04;73.52;101350.19;6214678;23;20015;-83
2022/06/01 06:40:22;;;;;;;2.43;2.23;;;;;;;16.31;72.89;101354.66;6215392;23;20414;-83
2022/06/01 06:42:48;;;;;;;2.20;2.00;;;;;;;16.51;71.66;101362.72;6213934;23;20004;-83
2022/06/01 06:45:13;;;;;;;2.60;2.40;;;;;;;16.62;71.11;101356.28;6216003;23;20055;-82
2022/06/01 06:47:40;;;;;;;5.03;3.10;;;;;;;16.63;69.35;101371.09;6215848;23;20044;-82
2022/06/01 06:50:09;;;;;;;6.30;3.70;;;;;;;16.57;67.40;101366.91;6215831;23;20004;-82
2022/06/01 06:52:34;;;;;;;4.78;3.42;;;;;;;16.45;67.53;101372.53;6216826;23;20355;-84
2022/06/01 06:55:00;;;;;;;5.50;3.23;;;;;;;16.38;69.77;101377.13;6214869;23;20051;-84
2022/06/01 06:57:25;;;;;;;5.30;3.27;;;;;;;16.36;70.13;101384.16;6216239;23;20142;-84
2022/06/01 06:59:51;;;;;;;6.50;4.07;;;;;;;16.32;69.80;101378.16;6215971;23;20059;-85
2022/06/01 07:02:16;;;;;;;4.37;3.50;;;;;;;16.29;70.13;101377.41;6215102;23;20453;-83
2022/06/01 07:04:46;;;;;;;5.57;3.50;;;;;;;16.32;69.93;101382.56;6216177;23;20004;-83
2022/06/01 07:07:12;;;;;;;7.18;4.20;;;;;;;16.28;67.45;101376.53;6217414;23;20008;-83
2022/06/01 07:09:38;;;;;;;4.13;3.20;;;;;;;16.26;70.67;101380.97;6217108;23;20028;-89
2022/06/01 07:12:04;;;;;;;5.20;2.90;;;;;;;16.36;70.44;101373.69;6215094;23;20012;-84
2022/06/01 07:14:29;;;;;;;4.10;2.88;;;;;;;16.54;70.83;101384.50;6217973;23;20005;-84
2022/06/01 07:16:58;;;;;;;3.53;2.60;;;;;;;16.70;70.09;101387.50;6218767;23;20426;-85
2022/06/01 07:19:24;;;;;;;2.83;2.50;;;;;;;16.75;69.42;101381.19;6215842;23;20335;-84
2022/06/01 07:21:52;;;;;;;2.30;2.10;;;;;;;16.82;69.71;101387.09;6217273;23;20011;-84
2022/06/01 07:24:17;;;;;;;3.00;2.40;;;;;;;16.88;68.31;101380.78;6217301;23;20084;-85
2022/06/01 07:26:44;;;;;;;3.47;2.60;;;;;;;16.91;69.55;101386.78;6219487;23;20001;-85
2022/06/01 07:29:10;;;;;;;;;;;;;;;16.99;69.41;101386.56;6220261;23;20358;-85
2022/06/01 07:31:36;;;;;;;3.03;2.35;;;;;;;16.81;68.98;101386.22;6219779;23;20325;-85
2022/06/01 07:34:01;;;;;;;4.70;3.20;;;;;;;16.51;68.99;101378.44;6216480;23;20005;-85
2022/06/01 07:36:28;;;;;;;3.57;2.87;;;;;;;16.29;69.02;101390.50;6217594;23;20059;-84
2022/06/01 07:44:22;;;;;;;7.03;4.28;;;;;;;16.20;67.68;101382.03;6226506;23;20330;-83
2022/06/01 07:46:48;;;;;;;9.48;5.47;;;;;;;15.85;68.05;101385.66;6216178;23;20008;-83
2022/06/01 07:49:14;;;;;;;5.43;4.03;;;;;;;15.71;69.69;101381.63;6216761;23;20005;-83
2022/06/01 07:51:40;;;;;;;5.78;4.07;;;;;;;15.71;69.36;101386.03;6215448;23;20236;-83
2022/06/01 07:54:05;;;;;;;4.73;3.70;;;;;;;15.74;69.99;101386.78;6214468;23;20432;-83
2022/06/01 07:56:32;;;;;;;3.93;3.17;;;;;;;15.87;70.12;101386.47;6216484;23;20365;-82
2022/06/01 07:58:57;;;;;;;3.08;2.50;;;;;;;16.07;70.20;101388.53;6215678;23;20020;-83
2022/06/01 08:01:26;;;;;;;4.83;3.70;;;;;;;16.08;69.42;101387.63;6215366;23;20062;-83
2022/06/01 08:03:57;;;;;;;4.10;3.10;;;;;;;16.09;69.27;101389.34;6216697;23;20444;-82
2022/06/01 08:06:23;;;;;;;3.05;2.70;;;;;;;16.08;68.57;101392.88;6218336;23;20076;-82
2022/06/01 08:08:49;;;;;;;2.90;2.63;;;;;;;16.08;69.44;101392.00;6214456;23;20008;-82
2022/06/01 08:11:16;;;;;;;5.63;3.90;;;;;;;15.95;64.73;101389.72;6218593;23;20004;-83
2022/06/01 08:13:42;;;;;;;4.13;3.50;;;;;;;15.87;68.63;101387.34;6216810;23;20055;-81
2022/06/01 08:16:07;;;;;;;3.43;3.13;;;;;;;16.08;68.12;101392.88;6216885;23;20420;-82
2022/06/01 08:18:33;;;;;;;3.33;3.00;;;;;;;16.26;67.13;101398.44;6216980;23;20000;-82
2022/06/01 08:20:59;;;;;;;6.63;3.77;;;;;;;16.36;65.01;101389.41;6215160;23;20008;-82
2022/06/01 08:23:27;;;;;;;3.37;2.97;;;;;;;16.41;67.01;101397.97;6215120;23;20008;-82
2022/06/01 08:25:53;;;;;;;3.17;2.78;;;;;;;16.49;66.74;101388.13;6215819;23;20050;-82
2022/06/01 08:28:19;;;;;;;2.65;2.45;;;;;;;16.55;67.28;101386.22;6213214;23;20445;-85
2022/06/01 08:30:46;;;;;;;3.27;2.87;;;;;;;16.60;63.34;101392.16;6217580;23;20000;-85
2022/06/01 08:33:12;;;;;;;;;;;;;;;16.69;65.47;101391.84;6216438;23;20011;-82
2022/06/01 08:35:40;;;;;;;5.63;3.75;;;;;;;16.75;65.03;101393.41;6214773;23;19914;-86
2022/06/01 08:38:07;;;;;;;3.00;2.70;;;;;;;16.73;66.77;101387.38;6215287;23;20202;-84
2022/06/01 08:40:49;;;;;;;2.83;2.53;;;;;;;16.80;64.59;101383.66;6216054;23;20377;-85
2022/06/01 08:43:25;;;;;;;2.85;2.65;;;;;;;16.81;65.02;101380.13;6219328;23;20319;-84
2022/06/01 08:45:56;;;;;;;2.13;2.03;;;;;;;16.78;65.57;101381.06;6217711;23;20537;-84
2022/06/01 08:48:39;;;;;;;1.98;1.88;;;;;;;16.79;66.07;101382.78;6218217;23;20422;-84
2022/06/01 08:51:05;;;;;;;1.90;1.80;;;;;;;16.97;66.04;101372.66;6214735;23;20000;-84
2022/06/01 08:53:30;;;;;;;1.80;1.70;;;;;;;17.25;65.64;101380.41;6216149;23;20009;-84
2022/06/01 08:56:00;;;;;;;5.07;3.03;;;;;;;17.39;58.94;101387.78;6215032;23;20031;-85
2022/06/01 08:58:37;;;;;;;2.97;2.67;;;;;;;17.34;59.08;101383.63;6214769;23;20419;-84
2022/06/01 09:01:19;;;;;;;3.50;3.00;;;;;;;17.28;60.47;101395.19;6219054;23;20363;-84
2022/06/01 09:04:03;;;;;;;3.20;2.90;;;;;;;17.44;59.96;101388.50;6215951;23;20088;-84
2022/06/01 09:06:40;;;;;;;2.47;2.28;;;;;;;17.68;59.69;101388.50;6215607;23;20008;-84
2022/06/01 09:09:30;;;;;;;3.65;2.80;;;;;;;17.71;60.54;101387.56;6214622;23;20016;-85
2022/06/01 09:11:56;;;;;;;4.25;3.03;;;;;;;17.86;59.10;101386.97;6214021;23;20004;-86
2022/06/01 09:14:31;;;;;;;2.70;2.50;;;;;;;17.94;60.42;101391.94;6215030;23;20434;-85
2022/06/01 09:16:57;;;;;;;2.60;2.35;;;;;;;17.90;61.86;101387.75;6214906;23;20036;-89
2022/06/01 09:22:37;;;;;;;2.92;2.50;;;;;;;17.80;61.17;101389.84;6214624;23;20011;-86
2022/06/01 09:25:07;;;;;;;2.85;2.10;;;;;;;17.37;61.51;101391.41;6214398;23;20020;-86
2022/06/01 09:27:38;;;;;;;2.40;2.17;;;;;;;17.14;58.67;101407.00;6214836;23;20004;-86
2022/06/01 09:30:19;;;;;;;3.17;2.40;;;;;;;16.76;57.90;101419.59;6215994;23;20009;-84
2022/06/01 09:33:22;;;;;;;2.78;2.45;;;;;;;16.20;61.32;101418.69;6216471;23;20000;-85
2022/06/01 09:36:06;;;;;;;6.60;3.60;;;;;;;14.73;63.77;101419.06;6216982;23;20008;-85
2022/06/01 09:38:51;;;;;;;6.78;3.60;;;;;;;13.72;66.09;101428.97;6216422;23;20004;-84
2022/06/01 09:41:19;;;;;;;3.43;2.90;;;;;;;13.23;68.50;101421.09;6214566;23;20005;-86
2022/06/01 09:43:52;;;;;;;3.13;2.63;;;;;;;12.92;69.58;101411.19;6213516;23;20346;-87
2022/06/01 09:46:46;;;;;;;2.45;2.03;;;;;;;12.84;70.62;101418.28;6214830;23;20005;-90
2022/06/01 09:49:21;;;;;;;2.05;1.85;;;;;;;12.80;69.13;101412.25;6203091;23;20008;-87
2022/06/01 09:51:52;;;;;;;2.08;1.88;;;;;;;12.88;69.06;101419.06;6218148;23;20015;-87
2022/06/01 09:54:23;;;;;;;1.30;1.20;;;;;;;13.00;69.22;101424.09;6219349;23;20004;-89
2022/06/01 09:56:50;;;;;;;1.45;1.30;;;;;;;13.07;69.23;101430.06;6215693;23;20005;-89
2022/06/01 10:08:22;;;;;;;1.30;1.20;;;;;;;13.13;71.36;101449.06;6214393;23;20027;-89
2022/06/01 10:11:03;;;;;;;1.60;1.50;;;;;;;13.00;73.75;101457.97;6215644;23;20118;-88
2022/06/01 10:13:50;;;;;;;2.53;2.20;;;;;;;12.78;73.42;101473.91;6215203;23;20074;-82
2022/06/01 10:16:26;;;;;;;7.60;4.93;;;;;;;12.31;71.29;101480.63;6216060;23;20008;-84
2022/06/01 10:18:55;;;;;;;4.20;3.35;;;;;;;12.16;71.54;101492.91;6214900;23;20423;-87
2022/06/01 10:21:25;;;;;;;4.57;2.80;;;;;;;12.12;73.54;101483.44;6214232;23;20000;-87
2022/06/01 10:24:01;;;;;;;2.60;2.20;;;;;;;12.10;72.06;101489.56;6214391;23;20067;-87
2022/06/01 10:26:32;;;;;;;3.20;2.00;;;;;;;12.14;72.22;101492.09;6215996;23;20035;-89
2022/06/01 10:29:03;;;;;;;1.88;1.77;;;;;;;12.19;72.33;101508.50;6215658;23;20009;-89
2022/06/01 10:31:39;;;;;;;1.90;1.80;;;;;;;12.24;72.91;101507.59;6216362;23;20032;-89
2022/06/01 10:34:10;;;;;;;1.98;1.70;;;;;;;12.23;72.76;101500.69;6215736;23;20330;-89
2022/06/01 10:37:01;;;;;;;3.58;2.20;;;;;;;12.15;75.42;101501.63;6214576;23;20056;-89
2022/06/01 10:39:54;;;;;;;2.70;2.30;;;;;;;12.02;75.10;101468.81;6215414;23;20062;-89
2022/06/01 10:43:16;;;;;;;2.30;2.10;;;;;;;11.89;73.56;101461.13;6216634;23;20019;-89
2022/06/01 10:46:00;;;;;;;1.95;1.85;;;;;;;11.95;72.86;101467.13;6170962;23;20004;-89
2022/06/01 10:48:30;;;;;;;1.70;1.60;;;;;;;12.09;73.16;101472.22;6218441;23;20058;-89
2022/06/01 10:51:09;;;;;;;1.55;1.45;;;;;;;12.20;75.39;101460.78;6215141;23;20008;-89
2022/06/01 10:54:03;;;;;;;2.47;2.28;;;;;;;12.32;77.31;101458.91;6222148;23;20008;-90
2022/06/01 10:56:28;;;;;;;2.83;2.10;;;;;;;12.47;76.65;101460.47;6217887;23;20058;-88
2022/06/01 10:58:59;;;;;;;1.30;1.30;;;;;;;12.70;75.69;101459.28;6216446;23;20416;-90
2022/06/01 11:01:39;;;;;;;1.42;1.42;;;;;;;13.02;74.54;101458.81;6216184;23;20005;-89
2022/06/01 11:04:43;;;;;;;1.40;1.30;;;;;;;13.38;76.40;101456.50;6215617;23;19997;-90
2022/06/01 11:07:29;;;;;;;1.35;1.35;;;;;;;13.76;74.82;101456.72;6218834;23;20016;-91
2022/06/01 11:10:12;;;;;;;1.80;1.70;;;;;;;14.04;76.89;101461.38;6217797;23;20005;-91
2022/06/01 11:13:06;;;;;;;1.50;1.40;;;;;;;14.18;76.20;101459.38;6218210;23;20012;-90
2022/06/01 11:15:50;;;;;;;2.40;2.20;;;;;;;14.25;76.63;101454.00;6217851;23;20000;-90
2022/06/01 11:18:27;;;;;;;2.33;1.80;;;;;;;14.21;74.54;101445.38;6217686;23;20028;-91
2022/06/01 11:20:58;;;;;;;2.10;1.90;;;;;;;14.27;75.79;101460.94;6217484;23;20032;-91
2022/06/01 11:23:49;;;;;;;2.40;2.20;;;;;;;14.27;76.16;101453.09;6218583;23;20117;-89
2022/06/01 11:26:30;;;;;;;4.13;2.95;;;;;;;14.28;75.64;101447.00;6218597;23;20010;-90
2022/06/01 11:29:10;;;;;;;3.03;2.50;;;;;;;14.31;75.76;101446.06;6216661;23;20009;-89
2022/06/01 11:31:38;;;;;;;2.70;2.10;;;;;;;14.43;74.94;101457.97;6217830;23;20080;-84
2022/06/01 11:34:19;;;;;;;1.88;1.77;;;;;;;14.61;75.35;101456.72;6217764;23;20421;-87
2022/06/01 11:36:57;;;;;;;1.98;1.88;;;;;;;14.83;75.23;101470.19;6218031;23;20009;-86
2022/06/01 11:39:38;;;;;;;3.80;2.28;;;;;;;15.04;78.30;101473.19;6217104;23;20406;-88
2022/06/01 11:42:39;;;;;;;2.20;2.03;;;;;;;15.20;76.14;101477.13;6216747;23;20008;-91
2022/06/01 11:45:12;;;;;;;2.30;2.10;;;;;;;15.25;75.31;101475.28;6153532;23;20012;-88
2022/06/01 11:47:50;;;;;;;2.00;1.90;;;;;;;15.32;74.39;101478.59;6219848;23;20011;-87
2022/06/01 11:50:37;;;;;;;1.67;1.58;;;;;;;15.51;74.86;101471.16;6218672;23;20008;-88
2022/06/01 11:53:12;;;;;;;1.48;1.48;;;;;;;15.56;73.78;101471.88;6216971;23;20005;-87
2022/06/01 11:55:38;;;;;;;1.63;1.52;;;;;;;15.69;73.47;101474.19;6218144;23;20005;-86
2022/06/01 11:58:08;;;;;;;1.60;1.50;;;;;;;16.01;72.78;101462.88;6215321;23;20495;-87
2022/06/01 12:00:40;;;;;;;1.60;1.50;;;;;;;16.34;72.19;101456.69;6216015;23;20000;-87
2022/06/01 12:03:17;;;;;;;1.30;1.30;;;;;;;16.60;71.00;101460.28;6216608;23;20333;-88
2022/06/01 12:06:09;;;;;;;1.70;1.60;;;;;;;16.85;71.33;101457.75;6216570;23;20011;-88
2022/06/01 12:08:39;;;;;;;1.83;1.70;;;;;;;17.04;70.37;101459.81;6215128;23;20460;-87